createdAt,value
2019-01-30T00:00:29.319Z,4.93
2019-01-30T00:05:34.172Z,7.43
2019-01-30T00:10:40.630Z,7.83
2019-01-30T00:15:55.801Z,6.23
2019-01-30T00:20:51.639Z,9.00
2019-01-30T00:25:56.444Z,11.20
2019-01-30T00:31:01.394Z,9.93
2019-01-30T00:36:06.248Z,7.07
2019-01-30T00:41:13.796Z,5.93
2019-01-30T00:46:19.205Z,5.93
2019-01-30T00:51:24.325Z,8.30
2019-01-30T00:56:29.059Z,8.17
2019-01-30T01:01:33.868Z,5.60
2019-01-30T01:06:41.276Z,7.43
2019-01-30T01:11:46.042Z,6.80
2019-01-30T01:16:50.414Z,6.67
2019-01-30T01:21:55.233Z,6.57
2019-01-30T01:27:00.109Z,6.30
2019-01-30T01:32:05.237Z,6.17
2019-01-30T01:37:10.232Z,4.77
2019-01-30T01:42:15.176Z,3.63
2019-01-30T01:47:20.372Z,4.43
2019-01-30T01:52:25.209Z,3.70
2019-01-30T01:57:30.009Z,3.23
2019-01-30T02:02:34.910Z,4.33
2019-01-30T02:07:39.820Z,4.93
2019-01-30T02:12:44.639Z,3.50
2019-01-30T02:17:50.273Z,4.67
2019-01-30T02:22:55.243Z,5.93
2019-01-30T02:28:00.081Z,6.13
2019-01-30T02:33:04.940Z,7.43
2019-01-30T02:38:09.853Z,6.37
2019-01-30T02:43:14.838Z,6.17
2019-01-30T02:48:19.754Z,6.00
2019-01-30T02:53:25.457Z,4.57
2019-01-30T02:58:31.020Z,3.17
2019-01-30T03:03:36.034Z,4.63
2019-01-30T03:08:41.554Z,7.33
2019-01-30T03:13:49.630Z,6.73
2019-01-30T03:18:54.872Z,10.90
2019-01-30T03:23:59.696Z,6.30
2019-01-30T03:29:06.832Z,9.53
2019-01-30T03:34:11.319Z,7.10
2019-01-30T03:39:16.299Z,11.93
2019-01-30T03:44:21.247Z,8.33
2019-01-30T03:49:26.132Z,9.77
2019-01-30T03:54:30.793Z,7.33
2019-01-30T03:59:35.709Z,11.03
2019-01-30T04:04:40.635Z,6.83
2019-01-30T04:09:45.512Z,8.33
2019-01-30T04:14:50.264Z,7.87
2019-01-30T04:19:55.277Z,8.40
2019-01-30T04:25:00.435Z,8.77
2019-01-30T04:30:07.506Z,10.13
2019-01-30T04:35:12.505Z,9.67
2019-01-30T04:40:22.769Z,10.77
2019-01-30T04:45:27.602Z,7.63
2019-01-30T04:50:32.656Z,10.93
2019-01-30T04:55:37.701Z,11.27
2019-01-30T05:00:42.828Z,9.67
2019-01-30T05:05:47.905Z,10.63
2019-01-30T05:10:52.712Z,11.43
2019-01-30T05:16:03.588Z,8.43
2019-01-30T05:21:15.554Z,9.00
2019-01-30T05:26:23.993Z,11.20
2019-01-30T05:31:42.582Z,9.73
2019-01-30T05:37:06.744Z,9.70
2019-01-30T05:42:14.788Z,11.10
2019-01-30T05:47:25.267Z,7.67
2019-01-30T05:52:30.651Z,13.37
2019-01-30T05:57:35.439Z,8.80
2019-01-30T06:02:53.511Z,12.53
2019-01-30T06:08:04.462Z,10.03
2019-01-30T06:13:09.882Z,7.23
2019-01-30T06:18:14.769Z,9.10
2019-01-30T06:23:19.728Z,10.70
2019-01-30T06:28:28.650Z,5.83
2019-01-30T06:33:31.053Z,11.83
2019-01-30T06:38:36.617Z,6.73
2019-01-30T06:43:57.342Z,9.37
2019-01-30T06:49:05.656Z,12.60
2019-01-30T06:54:11.456Z,11.83
2019-01-30T06:59:16.400Z,10.83
2019-01-30T07:04:25.977Z,10.07
2019-01-30T07:09:35.890Z,8.40
2019-01-30T07:14:40.628Z,8.33
2019-01-30T07:19:45.552Z,13.73
2019-01-30T07:24:50.274Z,10.80
2019-01-30T07:29:55.149Z,14.77
2019-01-30T07:35:02.374Z,11.67
2019-01-30T07:40:06.769Z,11.63
2019-01-30T07:45:16.835Z,11.13
2019-01-30T07:50:26.094Z,10.63
2019-01-30T07:55:30.979Z,8.53
2019-01-30T08:00:37.210Z,12.27
2019-01-30T08:05:42.030Z,14.97
2019-01-30T08:10:46.802Z,8.93
2019-01-30T08:15:55.868Z,9.53
2019-01-30T08:21:00.618Z,10.03
2019-01-30T08:26:05.608Z,8.93
2019-01-30T08:31:11.742Z,11.03
2019-01-30T08:36:16.577Z,10.37
2019-01-30T08:41:21.485Z,10.27
2019-01-30T08:46:28.912Z,12.20
2019-01-30T08:51:35.481Z,7.73
2019-01-30T08:56:52.500Z,7.57
2019-01-30T09:01:49.920Z,9.17
2019-01-30T09:06:54.743Z,11.17
2019-01-30T09:11:59.532Z,8.27
2019-01-30T09:17:08.318Z,8.87
2019-01-30T09:22:10.949Z,7.77
2019-01-30T09:27:15.971Z,10.33
2019-01-30T09:32:20.753Z,9.10
2019-01-30T09:37:32.337Z,8.00
2019-01-30T09:42:37.284Z,10.03
2019-01-30T09:47:42.502Z,15.30
2019-01-30T09:52:47.567Z,10.23
2019-01-30T09:57:54.716Z,9.87
2019-01-30T10:02:59.718Z,13.10
2019-01-30T10:08:05.036Z,13.27
2019-01-30T10:13:10.350Z,14.60
2019-01-30T10:18:18.492Z,11.30
2019-01-30T10:23:23.726Z,10.13
2019-01-30T10:28:32.012Z,9.53
2019-01-30T10:33:46.359Z,15.73
2019-01-30T10:38:45.034Z,12.67
2019-01-30T10:43:50.070Z,11.63
2019-01-30T10:48:55.224Z,15.93
2019-01-30T10:54:02.568Z,17.13
2019-01-30T10:59:07.566Z,15.30
2019-01-30T11:04:12.725Z,9.10
2019-01-30T11:09:17.686Z,12.43
2019-01-30T11:14:25.296Z,11.67
2019-01-30T11:19:32.701Z,12.80
2019-01-30T11:24:37.581Z,10.67
2019-01-30T11:29:42.880Z,8.80
2019-01-30T11:34:47.910Z,17.93
2019-01-30T11:39:57.328Z,12.70
2019-01-30T11:45:02.040Z,15.13
2019-01-30T11:50:08.115Z,17.57
2019-01-30T11:55:13.734Z,15.03
2019-01-30T12:00:28.184Z,19.03
2019-01-30T12:05:33.342Z,16.33
2019-01-30T12:10:38.222Z,13.07
2019-01-30T12:15:43.310Z,10.40
2019-01-30T12:20:51.759Z,15.53
2019-01-30T12:25:55.831Z,13.67
2019-01-30T12:31:00.785Z,12.27
2019-01-30T12:36:06.509Z,15.37
2019-01-30T12:41:11.354Z,15.53
2019-01-30T12:46:16.201Z,11.80
2019-01-30T12:51:21.051Z,13.97
2019-01-30T12:56:25.976Z,11.97
2019-01-30T13:01:31.284Z,12.57
2019-01-30T13:06:37.644Z,12.10
2019-01-30T13:11:42.549Z,10.03
2019-01-30T13:16:47.737Z,10.00
2019-01-30T13:21:52.557Z,9.93
2019-01-30T13:26:57.544Z,11.13
2019-01-30T13:32:05.004Z,15.10
2019-01-30T13:37:09.926Z,13.70
2019-01-30T13:42:14.976Z,11.10
2019-01-30T13:47:19.752Z,18.13
2019-01-30T13:52:24.611Z,13.07
2019-01-30T13:57:35.844Z,12.27
2019-01-30T14:02:40.631Z,14.67
2019-01-30T14:07:45.566Z,12.10
2019-01-30T14:12:50.512Z,13.13
2019-01-30T14:17:58.306Z,13.03
2019-01-30T14:23:03.380Z,14.23
2019-01-30T14:28:08.273Z,11.63
2019-01-30T14:33:13.236Z,12.67
2019-01-30T14:38:18.180Z,11.97
2019-01-30T14:43:26.962Z,15.47
2019-01-30T14:48:32.034Z,11.00
2019-01-30T14:53:40.193Z,12.83
2019-01-30T14:58:51.523Z,12.47
2019-01-30T15:03:56.896Z,18.07
2019-01-30T15:09:08.167Z,14.77
2019-01-30T15:14:16.301Z,19.90
2019-01-30T15:19:23.233Z,16.60
2019-01-30T15:24:30.364Z,17.40
2019-01-30T15:29:41.097Z,17.27
2019-01-30T15:34:48.371Z,21.83
2019-01-30T15:40:11.706Z,22.00
2019-01-30T15:45:25.830Z,26.40
2019-01-30T15:50:35.536Z,23.03
2019-01-30T15:55:48.185Z,18.33
2019-01-30T16:01:08.468Z,20.20
2019-01-30T16:06:16.997Z,19.40
2019-01-30T16:11:38.113Z,19.30
2019-01-30T16:16:46.535Z,17.27
2019-01-30T16:22:00.595Z,20.80
2019-01-30T16:27:09.071Z,15.87
2019-01-30T16:32:13.956Z,18.73
2019-01-30T16:37:19.385Z,24.47
2019-01-30T16:42:24.817Z,20.63
2019-01-30T16:47:32.605Z,34.20
2019-01-30T16:52:38.820Z,22.90
2019-01-30T16:57:43.764Z,22.77
2019-01-30T17:02:49.085Z,24.27
2019-01-30T17:07:54.101Z,24.37
2019-01-30T17:12:59.950Z,30.93
2019-01-30T17:18:05.549Z,29.30
2019-01-30T17:23:10.376Z,28.13
2019-01-30T17:28:15.444Z,24.17
2019-01-30T17:33:26.774Z,23.27
2019-01-30T17:38:31.803Z,22.53
2019-01-30T17:43:36.995Z,21.43
2019-01-30T17:48:42.479Z,30.00
2019-01-30T17:53:47.295Z,21.37
2019-01-30T17:58:52.741Z,25.30
2019-01-30T18:03:58.712Z,25.70
2019-01-30T18:09:05.572Z,21.50
2019-01-30T18:14:10.486Z,24.67
2019-01-30T18:19:16.282Z,26.57
2019-01-30T18:24:24.248Z,30.60
2019-01-30T18:29:29.273Z,29.83
2019-01-30T18:34:34.222Z,27.20
2019-01-30T18:39:39.299Z,20.87
2019-01-30T18:44:50.409Z,25.17
2019-01-30T18:49:55.206Z,19.93
2019-01-30T18:55:02.881Z,20.80
2019-01-30T19:00:18.868Z,30.27
2019-01-30T19:05:23.372Z,26.73
2019-01-30T19:10:28.338Z,27.40
2019-01-30T19:15:34.857Z,24.93
2019-01-30T19:20:40.025Z,27.27
2019-01-30T19:25:45.087Z,20.47
2019-01-30T19:30:52.529Z,23.17
2019-01-30T19:36:00.343Z,24.10
2019-01-30T19:41:06.238Z,21.90
2019-01-30T19:46:11.322Z,28.00
2019-01-30T19:51:16.160Z,34.13
2019-01-30T19:56:22.134Z,31.80
2019-01-30T20:01:35.866Z,33.33
2019-01-30T20:06:35.655Z,31.17
2019-01-30T20:11:40.761Z,27.87
2019-01-30T20:16:45.678Z,25.00
2019-01-30T20:21:50.720Z,25.17
2019-01-30T20:26:55.093Z,32.90
2019-01-30T20:32:00.025Z,23.27
2019-01-30T20:37:04.425Z,38.37
2019-01-30T20:42:09.498Z,36.27
2019-01-30T20:47:14.338Z,34.97
2019-01-30T20:52:19.332Z,34.50
2019-01-30T20:57:23.727Z,27.07
2019-01-30T21:02:28.097Z,39.77
2019-01-30T21:07:49.648Z,35.00
2019-01-30T21:12:56.541Z,38.47
2019-01-30T21:18:01.493Z,25.60
2019-01-30T21:23:17.838Z,24.33
2019-01-30T21:28:22.375Z,29.43
2019-01-30T21:33:26.679Z,25.77
2019-01-30T21:38:30.864Z,27.80
2019-01-30T21:43:35.471Z,23.57
2019-01-30T21:48:40.616Z,29.53
2019-01-30T21:53:45.015Z,29.03
2019-01-30T21:58:54.077Z,30.07
2019-01-30T22:03:59.048Z,28.33
2019-01-30T22:09:05.855Z,28.07
2019-01-30T22:14:12.348Z,21.67
2019-01-30T22:19:17.512Z,29.27
2019-01-30T22:24:22.090Z,29.37
2019-01-30T22:29:27.310Z,22.57
2019-01-30T22:34:32.424Z,29.83
2019-01-30T22:39:37.402Z,22.77
2019-01-30T22:44:46.172Z,30.00
2019-01-30T22:49:58.215Z,27.60
2019-01-30T22:55:02.788Z,25.07
2019-01-30T23:00:21.859Z,20.03
2019-01-30T23:06:12.997Z,20.37
2019-01-30T23:11:35.689Z,23.30
2019-01-30T23:17:17.678Z,28.97
2019-01-30T23:22:41.519Z,22.07
2019-01-30T23:28:05.045Z,20.53
2019-01-30T23:33:43.830Z,24.80
2019-01-30T23:39:35.626Z,27.43
2019-01-30T23:45:01.624Z,22.13
2019-01-30T23:50:19.725Z,34.13
2019-01-30T23:55:36.326Z,25.67
